createdAt,value
2018-03-26T00:01:36.554Z,19.48
2018-03-26T00:04:04.127Z,17.70
2018-03-26T00:06:33.040Z,18.73
2018-03-26T00:09:01.742Z,16.95
2018-03-26T00:11:29.502Z,17.45
2018-03-26T00:13:57.034Z,14.80
2018-03-26T00:16:24.590Z,14.87
2018-03-26T00:18:53.646Z,17.87
2018-03-26T00:21:21.138Z,19.50
2018-03-26T00:23:48.589Z,17.93
2018-03-26T00:26:16.465Z,20.58
2018-03-26T00:28:44.695Z,22.27
2018-03-26T00:31:12.202Z,20.33
2018-03-26T00:33:41.040Z,20.07
2018-03-26T00:36:08.487Z,22.70
2018-03-26T00:38:36.630Z,22.23
2018-03-26T00:41:04.209Z,20.37
2018-03-26T00:43:32.464Z,27.00
2018-03-26T00:46:01.450Z,22.47
2018-03-26T00:48:28.923Z,21.80
2018-03-26T00:50:56.377Z,23.13
2018-03-26T00:53:47.187Z,19.80
2018-03-26T00:56:14.647Z,22.77
2018-03-26T00:58:43.130Z,21.07
2018-03-26T01:01:11.851Z,20.73
2018-03-26T01:03:39.367Z,19.43
2018-03-26T01:06:08.354Z,20.67
2018-03-26T01:08:36.651Z,29.83
2018-03-26T01:11:04.202Z,25.77
2018-03-26T01:13:32.486Z,30.37
2018-03-26T01:15:59.992Z,30.07
2018-03-26T01:18:27.494Z,48.77
2018-03-26T01:20:55.818Z,41.77
2018-03-26T01:23:23.530Z,31.67
2018-03-26T01:25:50.998Z,25.12
2018-03-26T01:28:18.555Z,22.70
2018-03-26T01:30:46.764Z,78.57
2018-03-26T01:33:15.014Z,44.33
2018-03-26T01:35:43.350Z,38.23
2018-03-26T01:38:11.278Z,29.17
2018-03-26T01:40:40.158Z,24.98
2018-03-26T01:43:09.335Z,19.25
2018-03-26T01:45:37.620Z,23.08
2018-03-26T01:48:05.850Z,24.03
2018-03-26T01:50:33.412Z,25.33
2018-03-26T01:53:00.875Z,23.10
2018-03-26T01:55:28.347Z,24.65
2018-03-26T01:57:56.582Z,23.38
2018-03-26T02:00:24.546Z,21.20
2018-03-26T02:02:52.362Z,19.37
2018-03-26T02:05:19.836Z,21.30
2018-03-26T02:07:48.693Z,25.00
2018-03-26T02:10:16.194Z,24.00
2018-03-26T02:12:45.150Z,21.85
2018-03-26T02:15:12.652Z,21.65
2018-03-26T02:17:41.619Z,20.62
2018-03-26T02:20:09.086Z,19.02
2018-03-26T02:22:36.553Z,17.75
2018-03-26T02:25:04.022Z,18.85
2018-03-26T02:27:32.925Z,16.33
2018-03-26T02:30:01.172Z,17.17
2018-03-26T02:32:29.054Z,18.40
2018-03-26T02:34:57.343Z,16.50
2018-03-26T02:37:26.498Z,19.95
2018-03-26T02:39:53.966Z,20.10
2018-03-26T02:42:21.706Z,20.10
2018-03-26T02:44:49.203Z,20.80
2018-03-26T02:47:16.666Z,21.30
2018-03-26T02:49:44.252Z,21.25
2018-03-26T02:52:12.462Z,22.70
2018-03-26T02:54:40.892Z,23.95
2018-03-26T02:57:08.715Z,21.95
2018-03-26T02:59:37.315Z,22.08
2018-03-26T03:02:05.664Z,22.70
2018-03-26T03:04:33.889Z,22.05
2018-03-26T03:07:01.435Z,24.63
2018-03-26T03:09:29.316Z,24.23
2018-03-26T03:11:56.775Z,23.60
2018-03-26T03:14:24.338Z,23.83
2018-03-26T03:16:53.011Z,24.63
2018-03-26T03:19:20.586Z,24.00
2018-03-26T03:21:49.625Z,23.23
2018-03-26T03:24:17.137Z,25.25
2018-03-26T03:26:44.599Z,26.07
2018-03-26T03:29:12.834Z,24.15
2018-03-26T03:31:40.629Z,26.87
2018-03-26T03:34:08.390Z,23.58
2018-03-26T03:36:36.370Z,27.33
2018-03-26T03:39:03.830Z,27.17
2018-03-26T03:41:31.302Z,25.60
2018-03-26T03:43:59.312Z,29.07
2018-03-26T03:46:27.127Z,24.10
2018-03-26T03:48:55.605Z,30.73
2018-03-26T03:51:23.886Z,30.10
2018-03-26T03:53:52.233Z,28.57
2018-03-26T03:56:19.782Z,24.67
2018-03-26T03:58:47.544Z,29.30
2018-03-26T04:01:15.091Z,28.37
2018-03-26T04:03:42.870Z,27.87
2018-03-26T04:06:10.475Z,31.03
2018-03-26T04:08:37.933Z,27.37
2018-03-26T04:11:05.390Z,26.47
2018-03-26T04:13:33.974Z,28.20
2018-03-26T04:16:04.534Z,30.57
2018-03-26T04:18:34.786Z,27.63
2018-03-26T04:21:02.931Z,28.47
2018-03-26T04:23:31.180Z,27.03
2018-03-26T04:25:58.703Z,26.93
2018-03-26T04:28:26.935Z,26.97
2018-03-26T04:30:55.901Z,25.73
2018-03-26T04:33:24.182Z,24.60
2018-03-26T04:35:52.579Z,21.00
2018-03-26T04:38:20.347Z,28.53
2018-03-26T04:40:48.690Z,25.65
2018-03-26T04:43:16.579Z,25.47
2018-03-26T04:45:45.007Z,25.67
2018-03-26T04:48:12.482Z,28.13
2018-03-26T04:50:40.974Z,26.98
2018-03-26T04:53:08.516Z,31.33
2018-03-26T04:55:36.653Z,27.73
2018-03-26T04:58:05.034Z,30.05
2018-03-26T05:00:33.250Z,30.63
2018-03-26T05:03:00.726Z,31.37
2018-03-26T05:05:28.918Z,29.33
2018-03-26T05:07:56.373Z,33.33
2018-03-26T05:10:24.526Z,33.77
2018-03-26T05:12:51.991Z,24.10
2018-03-26T05:15:19.465Z,33.83
2018-03-26T05:17:46.933Z,27.58
2018-03-26T05:20:14.702Z,24.33
2018-03-26T05:22:43.262Z,24.23
2018-03-26T05:25:10.682Z,23.50
2018-03-26T05:27:41.006Z,21.23
2018-03-26T05:30:08.570Z,27.05
2018-03-26T05:32:37.506Z,22.95
2018-03-26T05:35:06.362Z,31.07
2018-03-26T05:37:33.920Z,26.65
2018-03-26T05:40:01.387Z,26.00
2018-03-26T05:42:29.415Z,29.83
2018-03-26T05:44:57.641Z,31.20
2018-03-26T05:47:25.127Z,31.13
2018-03-26T05:49:53.310Z,35.97
2018-03-26T05:52:20.762Z,36.73
2018-03-26T05:54:48.321Z,34.37
2018-03-26T05:57:15.795Z,36.10
2018-03-26T05:59:44.454Z,38.50
2018-03-26T06:02:12.050Z,40.53
2018-03-26T06:04:40.063Z,41.70
2018-03-26T06:07:08.162Z,35.33
2018-03-26T06:09:35.788Z,33.33
2018-03-26T06:12:03.459Z,32.70
2018-03-26T06:14:30.916Z,26.63
2018-03-26T06:17:10.122Z,30.08
2018-03-26T06:19:37.602Z,29.07
2018-03-26T06:22:05.470Z,28.67
2018-03-26T06:24:32.938Z,25.60
2018-03-26T06:27:01.306Z,34.20
2018-03-26T06:29:28.774Z,35.23
2018-03-26T06:31:56.639Z,38.13
2018-03-26T06:34:24.192Z,39.10
2018-03-26T06:39:53.742Z,29.53
2018-03-26T06:42:21.218Z,28.17
2018-03-26T06:44:48.866Z,26.60
2018-03-26T06:47:16.322Z,31.30
2018-03-26T06:49:43.902Z,28.67
2018-03-26T06:52:12.414Z,29.70
2018-03-26T06:54:40.634Z,28.87
2018-03-26T06:57:08.094Z,25.07
2018-03-26T06:59:35.550Z,28.33
2018-03-26T07:02:03.015Z,31.53
2018-03-26T07:04:30.482Z,34.57
2018-03-26T07:06:57.943Z,32.53
2018-03-26T07:09:25.402Z,43.20
2018-03-26T07:11:52.869Z,33.37
2018-03-26T07:14:20.525Z,30.47
2018-03-26T07:16:48.715Z,33.23
2018-03-26T07:19:16.774Z,29.10
2018-03-26T07:21:44.246Z,28.47
2018-03-26T07:24:11.692Z,28.03
2018-03-26T07:26:39.582Z,25.53
2018-03-26T07:29:07.904Z,29.07
2018-03-26T07:31:35.559Z,27.77
2018-03-26T07:34:03.058Z,28.93
2018-03-26T07:36:30.606Z,29.60
2018-03-26T07:38:58.067Z,30.03
2018-03-26T07:41:25.842Z,29.57
2018-03-26T07:43:53.942Z,28.47
2018-03-26T07:46:22.518Z,33.13
2018-03-26T07:48:50.880Z,28.93
2018-03-26T07:51:18.336Z,29.27
2018-03-26T07:53:45.959Z,34.57
2018-03-26T07:56:13.463Z,34.00
2018-03-26T07:58:41.683Z,30.27
2018-03-26T08:01:09.845Z,33.00
2018-03-26T08:03:38.247Z,30.87
2018-03-26T08:06:05.699Z,31.27
2018-03-26T08:08:34.550Z,33.30
2018-03-26T08:11:02.013Z,33.37
2018-03-26T08:13:30.762Z,33.40
2018-03-26T08:15:58.210Z,34.13
2018-03-26T08:18:25.703Z,37.87
2018-03-26T08:20:53.154Z,30.47
2018-03-26T08:23:20.616Z,33.93
2018-03-26T08:25:48.083Z,35.40
2018-03-26T08:28:15.544Z,31.80
2018-03-26T08:30:43.003Z,36.70
2018-03-26T08:33:10.469Z,32.47
2018-03-26T08:35:39.419Z,37.17
2018-03-26T08:38:06.878Z,35.07
2018-03-26T08:40:34.346Z,35.67
2018-03-26T08:43:01.817Z,33.03
2018-03-26T08:45:29.702Z,35.30
2018-03-26T08:47:57.970Z,41.57
2018-03-26T08:50:25.476Z,37.97
2018-03-26T08:52:55.042Z,36.07
2018-03-26T08:55:23.723Z,37.37
2018-03-26T08:57:51.278Z,34.97
2018-03-26T09:00:18.734Z,34.30
2018-03-26T09:02:46.418Z,38.60
2018-03-26T09:05:14.738Z,36.57
2018-03-26T09:07:42.202Z,37.27
2018-03-26T09:10:09.694Z,38.92
2018-03-26T09:12:37.958Z,34.63
2018-03-26T09:15:05.409Z,38.47
2018-03-26T09:17:34.275Z,35.37
2018-03-26T09:20:01.719Z,33.60
2018-03-26T09:22:29.188Z,35.97
2018-03-26T09:24:56.638Z,36.00
2018-03-26T09:27:25.584Z,40.53
2018-03-26T09:29:53.062Z,37.63
2018-03-26T09:32:21.319Z,38.63
2018-03-26T09:34:48.854Z,35.03
2018-03-26T09:37:16.514Z,35.07
2018-03-26T09:39:46.431Z,36.47
2018-03-26T09:42:13.916Z,35.37
2018-03-26T09:44:41.580Z,38.20
2018-03-26T09:47:09.351Z,34.50
2018-03-26T09:49:36.814Z,32.47
2018-03-26T09:52:04.280Z,32.00
2018-03-26T09:54:32.509Z,33.57
2018-03-26T09:56:59.978Z,30.37
2018-03-26T09:59:28.194Z,32.80
2018-03-26T10:01:57.367Z,35.57
2018-03-26T10:04:24.833Z,37.57
2018-03-26T10:06:52.285Z,32.50
2018-03-26T10:09:19.846Z,32.37
2018-03-26T10:11:47.307Z,32.90
2018-03-26T10:14:15.676Z,32.83
2018-03-26T10:16:43.240Z,36.40
2018-03-26T10:19:10.711Z,33.63
2018-03-26T10:21:40.372Z,34.37
2018-03-26T10:24:08.478Z,36.67
2018-03-26T10:26:36.100Z,32.80
2018-03-26T10:29:03.542Z,37.17
2018-03-26T10:31:31.397Z,41.40
2018-03-26T10:33:59.620Z,34.07
2018-03-26T10:36:27.109Z,33.50
2018-03-26T10:38:55.278Z,35.23
2018-03-26T10:41:22.744Z,36.70
2018-03-26T10:43:50.198Z,35.17
2018-03-26T10:46:17.667Z,35.97
2018-03-26T10:48:45.488Z,38.70
2018-03-26T10:51:12.957Z,36.73
2018-03-26T10:53:40.415Z,32.40
2018-03-26T10:56:09.238Z,34.67
2018-03-26T10:58:36.702Z,34.17
2018-03-26T11:01:04.935Z,33.97
2018-03-26T11:03:32.402Z,35.47
2018-03-26T11:05:59.858Z,36.40
2018-03-26T11:08:27.433Z,31.80
2018-03-26T11:10:54.995Z,35.07
2018-03-26T11:13:23.182Z,33.87
2018-03-26T11:15:50.646Z,37.37
2018-03-26T11:18:19.154Z,32.77
2018-03-26T11:20:47.102Z,44.17
2018-03-26T11:23:15.339Z,35.40
2018-03-26T11:25:42.918Z,33.80
2018-03-26T11:28:10.379Z,33.67
2018-03-26T11:30:37.955Z,33.43
2018-03-26T11:33:06.177Z,36.13
2018-03-26T11:35:33.639Z,35.60
2018-03-26T11:38:01.126Z,37.70
2018-03-26T11:40:37.654Z,34.60
2018-03-26T11:43:06.286Z,33.83
2018-03-26T11:45:33.746Z,34.60
2018-03-26T11:48:02.022Z,38.80
2018-03-26T11:50:30.360Z,34.57
2018-03-26T11:52:58.229Z,38.87
2018-03-26T11:55:25.690Z,37.53
2018-03-26T11:57:53.150Z,37.33
2018-03-26T12:00:20.605Z,38.70
2018-03-26T12:02:48.222Z,36.00
2018-03-26T12:05:16.488Z,35.17
2018-03-26T12:07:43.952Z,35.10
2018-03-26T12:10:11.407Z,39.77
2018-03-26T12:12:38.958Z,34.87
2018-03-26T12:15:06.410Z,34.33
2018-03-26T12:17:34.314Z,37.33
2018-03-26T12:20:14.281Z,37.63
2018-03-26T12:22:42.668Z,39.58
2018-03-26T12:25:12.898Z,34.57
2018-03-26T12:27:52.099Z,38.93
2018-03-26T12:30:20.310Z,38.33
2018-03-26T12:32:48.024Z,42.87
2018-03-26T12:35:27.321Z,41.40
2018-03-26T12:37:54.788Z,40.60
2018-03-26T12:40:34.134Z,41.40
2018-03-26T12:43:02.214Z,41.53
2018-03-26T12:45:41.386Z,45.63
2018-03-26T12:48:08.856Z,39.90
2018-03-26T12:50:48.222Z,42.10
2018-03-26T12:53:16.314Z,41.97
2018-03-26T12:55:44.270Z,42.20
2018-03-26T12:58:23.830Z,39.07
2018-03-26T13:01:06.655Z,41.97
2018-03-26T13:03:35.247Z,46.63
2018-03-26T13:06:03.476Z,46.00
2018-03-26T13:08:30.958Z,43.80
2018-03-26T13:10:58.730Z,44.13
2018-03-26T13:13:26.799Z,42.77
2018-03-26T13:15:54.266Z,44.67
2018-03-26T13:18:21.938Z,47.30
2018-03-26T13:20:50.579Z,42.63
2018-03-26T13:23:18.047Z,44.80
2018-03-26T13:25:45.622Z,43.33
2018-03-26T13:28:13.092Z,42.13
2018-03-26T13:30:40.554Z,42.60
2018-03-26T13:33:09.080Z,41.53
2018-03-26T13:35:36.582Z,46.80
2018-03-26T13:38:04.098Z,38.27
2018-03-26T13:40:32.006Z,36.67
2018-03-26T13:42:59.469Z,40.17
2018-03-26T13:45:27.136Z,41.33
2018-03-26T13:47:54.690Z,43.30
2018-03-26T13:50:22.875Z,37.60
2018-03-26T13:52:50.334Z,39.33
2018-03-26T13:55:17.787Z,46.17
2018-03-26T13:57:46.571Z,41.87
2018-03-26T14:00:14.130Z,39.20
2018-03-26T14:02:41.591Z,40.53
2018-03-26T14:05:09.058Z,41.23
2018-03-26T14:07:36.511Z,40.37
2018-03-26T14:10:15.943Z,37.57
2018-03-26T14:13:08.181Z,41.67
2018-03-26T14:15:47.554Z,43.03
2018-03-26T14:18:15.776Z,37.50
2018-03-26T14:20:43.313Z,39.80
2018-03-26T14:23:10.814Z,40.77
2018-03-26T14:25:38.271Z,46.93
2018-03-26T14:28:05.788Z,42.17
2018-03-26T14:30:33.574Z,40.87
2018-03-26T14:33:02.500Z,46.67
2018-03-26T14:35:44.894Z,42.03
2018-03-26T14:38:12.351Z,41.93
2018-03-26T14:40:40.747Z,45.77
2018-03-26T14:43:09.800Z,42.47
2018-03-26T14:45:37.173Z,42.13
2018-03-26T14:48:04.640Z,39.97
2018-03-26T14:50:32.094Z,39.93
2018-03-26T14:52:59.663Z,42.73
2018-03-26T14:55:28.651Z,44.53
2018-03-26T14:57:56.147Z,38.87
2018-03-26T15:00:25.744Z,43.53
2018-03-26T15:02:54.947Z,36.60
2018-03-26T15:05:23.199Z,38.60
2018-03-26T15:07:50.658Z,40.17
2018-03-26T15:10:18.124Z,42.20
2018-03-26T15:12:45.585Z,41.27
2018-03-26T15:15:13.938Z,41.33
2018-03-26T15:17:41.406Z,40.20
2018-03-26T15:20:08.874Z,37.67
2018-03-26T15:22:36.446Z,42.83
2018-03-26T15:25:05.099Z,43.10
2018-03-26T15:27:33.091Z,40.07
2018-03-26T15:30:00.546Z,39.60
2018-03-26T15:32:27.998Z,43.73
2018-03-26T15:34:55.471Z,47.17
2018-03-26T15:37:22.927Z,44.83
2018-03-26T15:39:50.382Z,42.57
2018-03-26T15:42:17.938Z,42.57
2018-03-26T15:44:45.399Z,37.93
2018-03-26T15:47:13.475Z,39.23
2018-03-26T15:49:40.942Z,47.37
2018-03-26T15:52:10.678Z,44.67
2018-03-26T15:54:38.151Z,44.90
2018-03-26T15:57:07.035Z,42.40
2018-03-26T15:59:34.491Z,41.87
2018-03-26T16:02:01.726Z,43.60
2018-03-26T16:04:29.946Z,50.33
2018-03-26T16:06:57.430Z,40.83
2018-03-26T16:09:25.906Z,42.87
2018-03-26T16:11:53.618Z,46.80
2018-03-26T16:14:21.259Z,46.17
2018-03-26T16:16:49.485Z,44.27
2018-03-26T16:19:17.131Z,43.40
2018-03-26T16:21:46.014Z,46.07
2018-03-26T16:24:13.546Z,45.50
2018-03-26T16:26:42.639Z,47.60
2018-03-26T16:29:11.303Z,44.40
2018-03-26T16:31:38.871Z,49.90
2018-03-26T16:34:06.346Z,44.87
2018-03-26T16:36:35.195Z,48.67
2018-03-26T16:39:02.806Z,41.27
2018-03-26T16:41:42.834Z,44.07
2018-03-26T16:44:11.191Z,40.03
2018-03-26T16:46:39.784Z,36.07
2018-03-26T16:49:07.459Z,42.07
2018-03-26T16:51:34.935Z,37.37
2018-03-26T16:54:03.155Z,35.93
2018-03-26T16:56:30.677Z,36.97
2018-03-26T16:58:58.903Z,36.77
2018-03-26T17:01:27.107Z,36.13
2018-03-26T17:03:54.578Z,32.63
2018-03-26T17:06:23.530Z,31.57
2018-03-26T17:08:50.995Z,30.17
2018-03-26T17:11:18.488Z,28.07
2018-03-26T17:13:46.728Z,30.30
2018-03-26T17:16:14.190Z,27.10
2018-03-26T17:18:42.113Z,26.93
2018-03-26T17:21:09.586Z,31.40
2018-03-26T17:23:37.035Z,29.67
2018-03-26T17:26:04.506Z,30.00
2018-03-26T17:28:32.746Z,35.50
2018-03-26T17:31:01.298Z,33.93
2018-03-26T17:33:28.870Z,35.70
2018-03-26T17:35:56.331Z,31.10
2018-03-26T17:38:23.898Z,38.47
2018-03-26T17:40:51.458Z,39.60
2018-03-26T17:43:18.914Z,35.73
2018-03-26T17:45:46.570Z,35.23
2018-03-26T17:48:14.189Z,39.13
2018-03-26T17:50:42.535Z,37.53
2018-03-26T17:53:10.758Z,41.53
2018-03-26T17:55:38.222Z,36.87
2018-03-26T17:58:05.681Z,43.40
2018-03-26T18:00:33.544Z,37.40
2018-03-26T18:03:01.006Z,38.73
2018-03-26T18:05:28.464Z,42.77
2018-03-26T18:07:56.414Z,39.23
2018-03-26T18:10:24.077Z,40.17
2018-03-26T18:12:53.035Z,43.20
2018-03-26T18:15:21.740Z,43.30
2018-03-26T18:17:49.254Z,41.93
2018-03-26T18:20:17.932Z,41.07
2018-03-26T18:22:45.393Z,45.70
2018-03-26T18:25:12.975Z,42.20
2018-03-26T18:27:40.755Z,43.23
2018-03-26T18:30:08.986Z,38.40
2018-03-26T18:32:36.466Z,43.13
2018-03-26T18:35:03.924Z,41.33
2018-03-26T18:37:31.435Z,43.80
2018-03-26T18:39:59.248Z,42.47
2018-03-26T18:42:27.433Z,43.60
2018-03-26T18:44:54.883Z,45.83
2018-03-26T18:47:22.354Z,45.73
2018-03-26T18:49:50.579Z,47.00
2018-03-26T18:52:18.035Z,43.93
2018-03-26T18:54:45.507Z,42.60
2018-03-26T18:57:13.608Z,45.13
2018-03-26T18:59:41.118Z,42.73
2018-03-26T19:02:08.575Z,43.20
2018-03-26T19:04:36.034Z,44.33
2018-03-26T19:07:04.951Z,44.10
2018-03-26T19:09:32.423Z,42.20
2018-03-26T19:12:00.651Z,44.57
2018-03-26T19:14:28.598Z,43.20
2018-03-26T19:16:56.950Z,47.10
2018-03-26T19:19:24.843Z,48.10
2018-03-26T19:21:53.938Z,45.73
2018-03-26T19:24:22.178Z,47.83
2018-03-26T19:26:49.863Z,42.97
2018-03-26T19:29:17.422Z,47.10
2018-03-26T19:31:44.894Z,41.33
2018-03-26T19:34:13.660Z,46.67
2018-03-26T19:36:41.112Z,48.23
2018-03-26T19:39:08.685Z,47.57
2018-03-26T19:41:37.426Z,50.20
2018-03-26T19:44:04.996Z,46.43
2018-03-26T19:46:32.486Z,49.93
2018-03-26T19:49:00.707Z,47.40
2018-03-26T19:51:28.928Z,43.03
2018-03-26T19:53:56.398Z,48.47
2018-03-26T19:56:24.634Z,49.93
2018-03-26T19:58:52.898Z,48.53
2018-03-26T20:01:20.426Z,45.50
2018-03-26T20:03:47.930Z,51.83
2018-03-26T20:06:15.530Z,50.47
2018-03-26T20:08:42.997Z,48.00
2018-03-26T20:11:10.506Z,51.53
2018-03-26T20:13:38.270Z,48.00
2018-03-26T20:16:05.781Z,47.53
2018-03-26T20:18:38.195Z,52.50
2018-03-26T20:21:05.663Z,52.50
2018-03-26T20:23:33.174Z,53.03
2018-03-26T20:26:00.624Z,54.50
2018-03-26T20:28:28.084Z,54.43
2018-03-26T20:30:55.662Z,57.60
2018-03-26T20:33:24.315Z,61.67
2018-03-26T20:35:52.382Z,58.27
2018-03-26T20:38:19.973Z,57.43
2018-03-26T20:40:48.161Z,64.23
2018-03-26T20:43:16.390Z,58.17
2018-03-26T20:45:43.862Z,70.00
2018-03-26T20:48:12.983Z,62.00
2018-03-26T20:50:42.551Z,61.10
2018-03-26T20:53:10.644Z,64.90
2018-03-26T20:55:38.106Z,61.33
2018-03-26T20:58:05.554Z,64.50
2018-03-26T21:00:33.176Z,63.13
2018-03-26T21:03:01.272Z,61.87
2018-03-26T21:05:29.389Z,67.75
2018-03-26T21:07:58.055Z,60.83
2018-03-26T21:10:26.038Z,61.33
2018-03-26T21:12:54.507Z,60.63
2018-03-26T21:15:22.073Z,63.90
2018-03-26T21:17:50.715Z,75.33
2018-03-26T21:20:18.174Z,82.17
2018-03-26T21:22:45.642Z,68.90
2018-03-26T21:25:13.094Z,62.70
2018-03-26T21:27:40.559Z,61.90
2018-03-26T21:30:08.038Z,59.33
2018-03-26T21:32:36.262Z,58.93
2018-03-26T21:35:03.714Z,57.57
2018-03-26T21:37:31.179Z,58.50
2018-03-26T21:39:59.507Z,57.77
2018-03-26T21:42:26.971Z,57.77
2018-03-26T21:44:55.252Z,58.00
2018-03-26T21:47:23.475Z,54.23
2018-03-26T21:49:50.942Z,54.03
2018-03-26T21:52:18.547Z,63.47
2018-03-26T21:54:47.398Z,57.60
2018-03-26T21:57:14.846Z,55.77
2018-03-26T21:59:42.319Z,57.13
2018-03-26T22:02:10.198Z,60.33
2018-03-26T22:04:37.656Z,57.80
2018-03-26T22:07:05.136Z,58.67
2018-03-26T22:09:32.595Z,55.50
2018-03-26T22:12:00.827Z,60.97
2018-03-26T22:14:28.290Z,59.40
2018-03-26T22:16:56.191Z,57.43
2018-03-26T22:19:24.038Z,53.37
2018-03-26T22:21:51.498Z,56.07
2018-03-26T22:24:19.348Z,60.73
2018-03-26T22:26:46.982Z,60.93
2018-03-26T22:29:15.202Z,60.67
2018-03-26T22:31:42.662Z,61.00
2018-03-26T22:34:10.126Z,62.80
2018-03-26T22:36:37.596Z,62.55
2018-03-26T22:39:05.052Z,57.47
2018-03-26T22:41:32.519Z,56.22
2018-03-26T22:44:00.794Z,59.42
2018-03-26T22:46:29.727Z,58.27
2018-03-26T22:48:57.422Z,59.03
2018-03-26T22:51:25.674Z,56.03
2018-03-26T22:53:53.306Z,54.53
2018-03-26T22:56:22.122Z,61.07
2018-03-26T22:58:49.634Z,57.60
2018-03-26T23:01:17.098Z,58.35
2018-03-26T23:03:45.330Z,61.10
2018-03-26T23:06:13.344Z,57.03
2018-03-26T23:08:40.820Z,58.42
2018-03-26T23:11:09.045Z,60.33
2018-03-26T23:13:36.535Z,56.20
2018-03-26T23:16:04.773Z,55.20
2018-03-26T23:18:32.288Z,59.27
2018-03-26T23:21:00.541Z,65.95
2018-03-26T23:23:28.008Z,60.63
2018-03-26T23:25:55.467Z,65.03
2018-03-26T23:28:23.027Z,64.83
2018-03-26T23:30:51.798Z,61.90
2018-03-26T23:33:20.278Z,61.83
2018-03-26T23:35:47.862Z,62.70
2018-03-26T23:38:15.310Z,63.43
2018-03-26T23:40:42.770Z,65.57
2018-03-26T23:43:10.331Z,61.72
2018-03-26T23:45:37.798Z,63.55
2018-03-26T23:48:06.037Z,65.73
2018-03-26T23:50:33.616Z,68.37
2018-03-26T23:53:01.144Z,65.93
2018-03-26T23:55:28.602Z,62.93
2018-03-26T23:57:56.066Z,65.80
